地図

経路データ

SID SEASON NUMBER BASIN SUBBASIN NAME ISO_TIME NATURE LAT LON WMO_WIND WMO_PRES WMO_AGENCY TRACK_TYPE DIST2LAND LANDFALL IFLAG USA_AGENCY USA_ATCF_ID USA_LAT USA_LON USA_RECORD USA_STATUS USA_WIND USA_PRES USA_SSHS USA_R34_NE USA_R34_SE USA_R34_SW USA_R34_NW USA_R50_NE USA_R50_SE USA_R50_SW USA_R50_NW USA_R64_NE USA_R64_SE USA_R64_SW USA_R64_NW USA_POCI USA_ROCI USA_RMW USA_EYE TOKYO_LAT TOKYO_LON TOKYO_GRADE TOKYO_WIND TOKYO_PRES TOKYO_R50_DIR TOKYO_R50_LONG TOKYO_R50_SHORT TOKYO_R30_DIR TOKYO_R30_LONG TOKYO_R30_SHORT TOKYO_LAND CMA_LAT CMA_LON CMA_CAT CMA_WIND CMA_PRES HKO_LAT HKO_LON HKO_CAT HKO_WIND HKO_PRES NEWDELHI_LAT NEWDELHI_LON NEWDELHI_GRADE NEWDELHI_WIND NEWDELHI_PRES NEWDELHI_CI NEWDELHI_DP NEWDELHI_POCI REUNION_LAT REUNION_LON REUNION_TYPE REUNION_WIND REUNION_PRES REUNION_TNUM REUNION_CI REUNION_RMW REUNION_R34_NE REUNION_R34_SE REUNION_R34_SW REUNION_R34_NW REUNION_R50_NE REUNION_R50_SE REUNION_R50_SW REUNION_R50_NW REUNION_R64_NE REUNION_R64_SE REUNION_R64_SW REUNION_R64_NW BOM_LAT BOM_LON BOM_TYPE BOM_WIND BOM_PRES BOM_TNUM BOM_CI BOM_RMW BOM_R34_NE BOM_R34_SE BOM_R34_SW BOM_R34_NW BOM_R50_NE BOM_R50_SE BOM_R50_SW BOM_R50_NW BOM_R64_NE BOM_R64_SE BOM_R64_SW BOM_R64_NW BOM_ROCI BOM_POCI BOM_EYE BOM_POS_METHOD BOM_PRES_METHOD NADI_LAT NADI_LON NADI_CAT NADI_WIND NADI_PRES WELLINGTON_LAT WELLINGTON_LON WELLINGTON_WIND WELLINGTON_PRES DS824_LAT DS824_LON DS824_STAGE DS824_WIND DS824_PRES TD9636_LAT TD9636_LON TD9636_STAGE TD9636_WIND TD9636_PRES TD9635_LAT TD9635_LON TD9635_WIND TD9635_PRES TD9635_ROCI NEUMANN_LAT NEUMANN_LON NEUMANN_CLASS NEUMANN_WIND NEUMANN_PRES MLC_LAT MLC_LON MLC_CLASS MLC_WIND MLC_PRES USA_GUST BOM_GUST BOM_GUST_PER REUNION_GUST REUNION_GUST_PER USA_SEAHGT USA_SEARAD_NE USA_SEARAD_SE USA_SEARAD_SW USA_SEARAD_NW STORM_SPEED STORM_DIR
1948223N18155 1948 50 WP MM DOLORES 1948-08-10 00:00:00 TS 18.1000 155.000 main 2372 2305 O________OOO__ jtwc_wp WP101948 18.1000 155.000 30 -1 18.1000 155.000 TC 30 18.1000 155.000 1 30 18.1000 155.000 30 1003 120 22 285
1948223N18155 1948 50 WP MM DOLORES 1948-08-10 03:00:00 TS 18.3843 153.892 main 2299 2215 P________PPP__ WP101948 18.3640 153.875 32 -1 18.3640 153.875 TC 32 18.4453 153.942 1 31 18.3640 153.875 32 1002 120 22 287
1948223N18155 1948 50 WP MM DOLORES 1948-08-10 06:00:00 TS 18.7275 152.824 main 2209 2122 O________OPO__ jtwc_wp WP101948 18.7000 152.800 35 0 18.7000 152.800 TC 35 18.8101 152.895 1 32 18.7000 152.800 35 1001 120 21 292
1948223N18155 1948 50 WP MM DOLORES 1948-08-10 09:00:00 TS 19.1763 151.828 main 2107 2016 P________PPP__ WP101948 19.1619 151.812 35 0 19.1619 151.812 TC 35 19.2196 151.876 1 33 19.1619 151.812 35 1000 120 21 298
1948223N18155 1948 50 WP MM DOLORES 1948-08-10 12:00:00 TS 19.7000 150.900 main 2011 1921 O________OOO__ jtwc_wp WP101948 19.7000 150.900 35 0 19.7000 150.900 TC 35 19.7000 150.900 2 35 19.7000 150.900 35 1000 120 20 302
1948223N18155 1948 50 WP MM DOLORES 1948-08-10 15:00:00 TS 20.2367 150.010 main 1916 1817 P________PPP__ WP101948 20.2271 150.019 37 0 20.2271 150.019 TC 37 20.2656 149.980 2 36 20.2271 150.019 37 999 120 20 305
1948223N18155 1948 50 WP MM DOLORES 1948-08-10 18:00:00 TS 20.8210 149.182 main 1817 1719 O________OPO__ jtwc_wp WP101948 20.8000 149.200 40 0 20.8000 149.200 TC 40 20.8838 149.130 2 37 20.8000 149.200 40 998 120 20 309
1948223N18155 1948 50 WP MM DOLORES 1948-08-10 21:00:00 TS 21.4762 148.384 main 1709 1617 P________PPP__ WP101948 21.4650 148.390 40 0 21.4650 148.390 TC 40 21.5101 148.364 2 38 21.4650 148.390 40 998 120 19 313
1948223N18155 1948 50 WP MM DOLORES 1948-08-11 00:00:00 TS 22.1000 147.700 main 1617 1544 O________OOO__ jtwc_wp WP101948 22.1000 147.700 40 0 22.1000 147.700 TC 40 22.1000 147.700 2 40 22.1000 147.700 40 998 120 16 315
1948223N18155 1948 50 WP MM DOLORES 1948-08-11 03:00:00 TS 22.5802 147.187 main 1544 1486 P________PPP__ WP101948 22.5794 147.204 40 0 22.5794 147.204 TC 40 22.5828 147.138 2 40 22.5794 147.204 40 997 120 13 317
1948223N18155 1948 50 WP MM DOLORES 1948-08-11 06:00:00 TS 23.0068 146.769 main 1486 1424 O________OPO__ jtwc_wp WP101948 23.0000 146.800 40 0 23.0000 146.800 TC 40 23.0273 146.676 2 40 23.0000 146.800 40 997 120 12 318
1948223N18155 1948 50 WP MM DOLORES 1948-08-11 09:00:00 TS 23.4521 146.320 main 1414 1357 P________PPP__ WP101948 23.4500 146.335 40 0 23.4500 146.335 TC 40 23.4583 146.276 2 40 23.4500 146.335 40 996 120 12 318
1948223N18155 1948 50 WP MM DOLORES 1948-08-11 12:00:00 TS 23.9000 145.900 main 1357 1304 O________OOO__ jtwc_wp WP101948 23.9000 145.900 40 0 23.9000 145.900 TC 40 23.9000 145.900 2 40 23.9000 145.900 40 996 120 12 321
1948223N18155 1948 50 WP MM DOLORES 1948-08-11 15:00:00 TS 24.3473 145.531 main 1300 1236 P________PPP__ WP101948 24.3347 145.549 40 0 24.3347 145.549 TC 40 24.3852 145.477 2 40 24.3347 145.549 40 995 120 11 324
1948223N18155 1948 50 WP MM DOLORES 1948-08-11 18:00:00 TS 24.8211 145.167 main 1236 1169 O________OPO__ jtwc_wp WP101948 24.8000 145.200 40 0 24.8000 145.200 TC 40 24.8846 145.069 2 40 24.8000 145.200 40 994 120 12 324
1948223N18155 1948 50 WP MM DOLORES 1948-08-11 21:00:00 TS 25.3549 144.732 main 1155 1088 P________PPP__ WP101948 25.3426 144.750 40 0 25.3426 144.750 TC 40 25.3916 144.677 2 40 25.3426 144.750 40 993 150 13 324
1948223N18155 1948 50 WP MM DOLORES 1948-08-12 00:00:00 TS 25.9000 144.300 main 1088 1025 O________OOO__ jtwc_wp WP101948 25.9000 144.300 40 0 25.9000 144.300 TC 40 25.9000 144.300 2 40 25.9000 144.300 40 992 180 13 326
1948223N18155 1948 50 WP MM DOLORES 1948-08-12 03:00:00 TS 26.4053 143.934 main 1022 959 P________PPP__ WP101948 26.4073 143.934 42 0 26.4073 143.934 TC 42 26.3995 143.934 2 40 26.4073 143.934 42 991 210 12 328
1948223N18155 1948 50 WP MM DOLORES 1948-08-12 06:00:00 TS 26.8998 143.596 main 959 896 O________OPO__ jtwc_wp WP101948 26.9000 143.600 45 0 26.9000 143.600 TC 45 26.8994 143.583 2 40 26.9000 143.600 45 990 240 12 328
1948223N18155 1948 50 WP MM DOLORES 1948-08-12 09:00:00 TS 27.3998 143.247 main 893 830 P________PPP__ WP101948 27.3999 143.250 42 0 27.3999 143.250 TC 42 27.3996 143.241 2 40 27.3999 143.250 42 990 240 12 328
1948223N18155 1948 50 WP MM DOLORES 1948-08-12 12:00:00 TS 27.9000 142.900 main 830 768 O________OOO__ jtwc_wp WP101948 27.9000 142.900 40 0 27.9000 142.900 TC 40 27.9000 142.900 2 40 27.9000 142.900 40 990 240 12 328
1948223N18155 1948 50 WP MM DOLORES 1948-08-12 15:00:00 TS 28.3999 142.548 main 765 703 P________PPP__ WP101948 28.3999 142.550 40 0 28.3999 142.550 TC 40 28.3999 142.541 2 40 28.3999 142.550 40 990 240 12 328
1948223N18155 1948 50 WP MM DOLORES 1948-08-12 18:00:00 TS 28.9000 142.196 main 703 641 O________OPO__ jtwc_wp WP101948 28.9000 142.200 40 0 28.9000 142.200 TC 40 28.8998 142.184 2 40 28.9000 142.200 40 991 240 12 328
1948223N18155 1948 50 WP MM DOLORES 1948-08-12 21:00:00 TS 29.3999 141.840 main 638 577 P________PPP__ WP101948 29.4000 141.842 40 0 29.4000 141.842 TC 40 29.3999 141.835 2 40 29.4000 141.842 40 991 240 12 329
1948223N18155 1948 50 WP MM DOLORES 1948-08-13 00:00:00 TS 29.9000 141.500 main 577 516 O________OOO__ jtwc_wp WP101948 29.9000 141.500 40 0 29.9000 141.500 TC 40 29.9000 141.500 2 40 29.9000 141.500 40 992 240 12 330
1948223N18155 1948 50 WP MM DOLORES 1948-08-13 03:00:00 TS 30.3989 141.179 main 516 455 P________PPP__ WP101948 30.3999 141.192 37 0 30.3999 141.192 TC 37 30.3960 141.141 2 37 30.3999 141.192 37 992 270 11 332
1948223N18155 1948 50 WP MM DOLORES 1948-08-13 06:00:00 TS 30.8982 140.876 main 455 394 O________OPO__ jtwc_wp WP101948 30.9000 140.900 35 0 30.9000 140.900 TC 35 30.8927 140.803 2 35 30.9000 140.900 35 993 300 11 332
1948223N18155 1948 50 WP MM DOLORES 1948-08-13 09:00:00 TS 31.3983 140.556 main 394 331 P________PPP__ WP101948 31.4001 140.570 32 -1 31.4001 140.570 TC 32 31.3930 140.514 2 32 31.4001 140.570 32 994 300 11 334
1948223N18155 1948 50 WP MM DOLORES 1948-08-13 12:00:00 TS 31.9000 140.300 main 331 277 O________OOO__ jtwc_wp WP101948 31.9000 140.300 30 -1 31.9000 140.300 TC 30 31.9000 140.300 1 30 31.9000 140.300 30 995 300 11 341
1948223N18155 1948 50 WP MM DOLORES 1948-08-13 15:00:00 TS 32.3983 140.156 main 277 223 P________PPP__ WP101948 32.3924 140.147 30 -1 32.3924 140.147 TC 30 32.4160 140.182 1 28 32.3924 140.147 30 995 270 10 351
1948223N18155 1948 50 WP MM DOLORES 1948-08-13 18:00:00 TS 32.9099 140.111 main 223 168 O________OPO__ jtwc_wp WP101948 32.9000 140.100 30 -1 32.9000 140.100 TC 30 32.9397 140.143 1 27 32.9000 140.100 30 996 240 11 359
1948223N18155 1948 50 WP MM DOLORES 1948-08-13 21:00:00 TS 33.4472 140.137 main 168 104 P________PPP__ WP101948 33.4401 140.130 27 -1 33.4401 140.130 TC 27 33.4686 140.158 1 26 33.4401 140.130 27 997 210 11 4
1948223N18155 1948 50 WP MM DOLORES 1948-08-14 00:00:00 TS 34.0000 140.200 main 104 O________OOO__ jtwc_wp WP101948 34.0000 140.200 25 -1 34.0000 140.200 TC 25 34.0000 140.200 1 25 34.0000 140.200 25 998 180 11 5

デジタル台風データ・検索

IBTrACS Databaseについて

本データベースは、米国NOAAが公開する1842年以降の世界の熱帯低気圧のベストトラックデータアーカイブInternational Best Track Archive for Climate Stewardship (IBTrACS)を、ウェブで閲覧しやすい形式に変換したものです。

最終更新日:2021-11-26